ADDS TAF Data INFO
IDs: Format: Raw Decoded Include METARs

Data at: 0557 UTC 21 Apr 2018

KIAD 210552Z 03007KT 10SM CLR 07/M02 A3042 RMK AO2 SLP302 T00671022 10128 20033 53018

KIAD 210539Z 2106/2212 VRB03KT P6SM SKC
  FM211600 28005KT P6SM FEW250
  FM220000 VRB03KT P6SM OVC150